Time;durP1;ratioP1;P1;durP2;ratioP2;P2;SDS_P1;SDS_P2;PMS_P1;PMS_P2;Temp;Humidity;BMP_temperature;BMP_pressure;BME280_temperature;BME280_humidity;BME280_pressure;Samples;Min_cycle;Max_cycle;Signal;HPM_P1;HPM_P2
2021/12/23 00:02:06;;;;;;;33.47;17.67;;;1.20;99.90;;;;;;5054576;28;20192;-74
2021/12/23 00:04:32;;;;;;;33.83;17.20;;;1.20;99.90;;;;;;5053638;28;20186;-75
2021/12/23 00:06:57;;;;;;;30.85;17.48;;;1.20;99.90;;;;;;5075553;28;20668;-75
2021/12/23 00:09:31;;;;;;;38.08;17.77;;;1.30;99.90;;;;;;5073828;28;20212;-74
2021/12/23 00:11:56;;;;;;;35.30;17.25;;;1.30;99.90;;;;;;5052126;28;20659;-73
2021/12/23 00:14:22;;;;;;;28.85;17.27;;;1.30;99.90;;;;;;5077404;28;20217;-72
2021/12/23 00:16:55;;;;;;;30.80;17.38;;;1.30;99.90;;;;;;5054533;28;20198;-72
2021/12/23 00:24:37;;;;;;;28.80;18.02;;;1.40;99.90;;;;;;5069167;28;20194;-73
2021/12/23 00:27:04;;;;;;;29.85;17.00;;;1.40;99.90;;;;;;5055706;28;20538;-74
2021/12/23 00:29:31;;;;;;;28.58;16.73;;;1.40;99.90;;;;;;5054126;28;20303;-73
2021/12/23 00:31:57;;;;;;;30.02;17.55;;;1.40;99.90;;;;;;5072962;28;20197;-75
2021/12/23 00:34:23;;;;;;;32.03;20.20;;;1.50;99.90;;;;;;5068083;28;20403;-72
2021/12/23 00:36:49;;;;;;;29.60;18.27;;;1.80;99.90;;;;;;5050462;28;20441;-74
2021/12/23 00:39:16;;;;;;;34.53;17.77;;;1.70;99.90;;;;;;5069568;28;20266;-73
2021/12/23 00:41:44;;;;;;;26.48;15.77;;;1.70;99.90;;;;;;5049554;28;20217;-72
2021/12/23 00:44:10;;;;;;;31.42;17.48;;;1.60;99.90;;;;;;5068174;28;20246;-72
2021/12/23 00:46:35;;;;;;;29.25;16.70;;;1.60;99.90;;;;;;5050673;28;20229;-73
2021/12/23 00:49:01;;;;;;;31.85;16.98;;;1.60;99.90;;;;;;5068833;28;20659;-74
2021/12/23 00:51:29;;;;;;;33.42;20.80;;;1.50;99.90;;;;;;5049335;28;20445;-74
2021/12/23 00:54:03;;;;;;;32.00;20.67;;;1.80;99.90;;;;;;5050287;28;20403;-73
2021/12/23 00:56:30;;;;;;;31.85;20.23;;;2.20;99.90;;;;;;5064592;28;20495;-73
2021/12/23 00:58:55;;;;;;;31.80;19.30;;;2.40;99.90;;;;;;5069564;28;20204;-73
2021/12/23 01:01:21;;;;;;;32.20;18.15;;;2.10;99.90;;;;;;5066628;28;20747;-71
2021/12/23 01:03:46;;;;;;;33.03;17.77;;;1.90;99.90;;;;;;5070312;28;20186;-74
2021/12/23 01:06:12;;;;;;;32.33;17.65;;;1.80;99.90;;;;;;5067907;28;20182;-73
2021/12/23 01:08:38;;;;;;;34.47;16.60;;;1.70;99.90;;;;;;5069347;28;20179;-74
2021/12/23 01:11:04;;;;;;;29.58;17.40;;;1.60;99.90;;;;;;5056560;28;20194;-73
2021/12/23 01:13:29;;;;;;;34.13;18.42;;;1.50;99.90;;;;;;5060976;28;20615;-75
2021/12/23 01:16:26;;;;;;;37.25;18.70;;;1.50;99.90;;;;;;5054515;28;20182;-74
2021/12/23 01:18:53;;;;;;;35.33;21.93;;;1.40;99.90;;;;;;5067283;28;20405;-72
2021/12/23 01:21:18;;;;;;;33.22;22.75;;;1.80;99.90;;;;;;5058235;28;20428;-72
2021/12/23 01:23:52;;;;;;;35.15;21.90;;;2.00;99.90;;;;;;5077498;28;20442;-73
2021/12/23 01:26:21;;;;;;;33.90;21.95;;;2.20;99.90;;;;;;5080171;28;20404;-73
2021/12/23 01:28:53;;;;;;;32.72;21.60;;;2.30;99.90;;;;;;5077648;28;20414;-76
2021/12/23 01:31:21;;;;;;;32.42;18.70;;;2.30;99.90;;;;;;5072411;28;20198;-73
2021/12/23 01:33:47;;;;;;;30.80;18.13;;;2.10;99.90;;;;;;5041971;28;20201;-74
2021/12/23 01:36:12;;;;;;;30.83;20.88;;;1.80;99.90;;;;;;5060961;28;20413;-74
2021/12/23 01:38:38;;;;;;;32.30;20.90;;;2.00;99.90;;;;;;5069352;28;20406;-73
2021/12/23 01:41:04;;;;;;;34.85;21.80;;;2.20;99.90;;;;;;5061450;28;20408;-73
2021/12/23 01:43:29;;;;;;;32.17;21.42;;;2.20;99.90;;;;;;5066041;28;20423;-74
2021/12/23 01:45:55;;;;;;;34.07;20.93;;;2.30;99.90;;;;;;5063073;28;20425;-73
2021/12/23 01:48:21;;;;;;;32.85;21.38;;;2.40;99.90;;;;;;5064806;28;20411;-72
2021/12/23 01:50:47;;;;;;;29.55;18.05;;;2.40;99.90;;;;;;5061444;28;20195;-76
2021/12/23 01:53:15;;;;;;;35.95;17.35;;;2.10;99.90;;;;;;5068364;28;20186;-73
2021/12/23 01:55:42;;;;;;;36.55;17.60;;;1.90;99.90;;;;;;5066376;28;20205;-75
2021/12/23 01:58:10;;;;;;;31.33;17.50;;;1.70;99.90;;;;;;5048636;28;20190;-74
2021/12/23 02:00:39;;;;;;;33.97;17.27;;;1.60;99.90;;;;;;5061854;28;20252;-75
2021/12/23 02:03:05;;;;;;;32.22;17.15;;;1.50;99.90;;;;;;5055287;28;20180;-73
2021/12/23 02:05:31;;;;;;;30.30;17.42;;;1.50;99.90;;;;;;5063888;28;20185;-73
2021/12/23 02:07:58;;;;;;;32.50;17.27;;;1.40;99.90;;;;;;5065149;28;20286;-74
2021/12/23 02:10:26;;;;;;;34.85;17.33;;;1.40;99.90;;;;;;5048456;28;20264;-77
2021/12/23 02:12:51;;;;;;;31.08;16.90;;;1.30;99.90;;;;;;5061489;28;20190;-73
2021/12/23 02:15:18;;;;;;;31.95;17.45;;;1.30;99.90;;;;;;5066105;28;20856;-74
2021/12/23 02:17:46;;;;;;;28.45;16.63;;;1.30;99.90;;;;;;5060725;28;21335;-75
2021/12/23 02:20:15;;;;;;;28.83;16.77;;;1.30;99.90;;;;;;5067250;28;20238;-75
2021/12/23 02:22:41;;;;;;;30.75;17.33;;;1.20;99.90;;;;;;5049398;28;20182;-74
2021/12/23 02:25:09;;;;;;;30.85;17.60;;;1.20;99.90;;;;;;5065827;28;20690;-75
2021/12/23 02:27:34;;;;;;;32.13;17.80;;;1.20;99.90;;;;;;5046752;28;20210;-74
2021/12/23 02:30:03;;;;;;;28.38;16.33;;;1.20;99.90;;;;;;5049541;28;20218;-75
2021/12/23 02:32:28;;;;;;;32.33;17.50;;;1.20;99.90;;;;;;5045859;28;20282;-75
2021/12/23 02:34:54;;;;;;;34.83;18.65;;;1.30;99.90;;;;;;5052871;28;20289;-74
2021/12/23 02:37:19;;;;;;;31.13;17.83;;;1.30;99.90;;;;;;5048366;28;20273;-75
2021/12/23 02:39:45;;;;;;;33.03;18.20;;;1.30;99.90;;;;;;5069847;28;20210;-74
2021/12/23 02:42:11;;;;;;;33.60;17.38;;;1.30;99.90;;;;;;5049129;28;20193;-73
2021/12/23 02:44:36;;;;;;;30.77;17.33;;;1.30;99.90;;;;;;5053815;28;20190;-72
2021/12/23 02:47:02;;;;;;;36.28;17.85;;;1.30;99.90;;;;;;5070349;28;20266;-74
2021/12/23 02:49:28;;;;;;;33.20;18.30;;;1.30;99.90;;;;;;5071354;28;20760;-72
2021/12/23 02:51:54;;;;;;;32.03;18.13;;;1.30;99.90;;;;;;5069970;28;20273;-73
2021/12/23 02:54:19;;;;;;;39.10;17.77;;;1.30;99.90;;;;;;5071241;28;20178;-74
2021/12/23 02:56:45;;;;;;;32.17;17.30;;;1.30;99.90;;;;;;5069900;28;20182;-73
2021/12/23 02:59:11;;;;;;;31.88;18.33;;;1.30;99.90;;;;;;5071716;28;20200;-72
2021/12/23 03:01:37;;;;;;;33.58;18.85;;;1.30;99.90;;;;;;5051057;28;20202;-75
2021/12/23 03:04:03;;;;;;;30.70;17.83;;;1.30;99.90;;;;;;5053946;28;20190;-74
2021/12/23 03:06:28;;;;;;;37.60;18.70;;;1.20;99.90;;;;;;5076679;28;20186;-73
2021/12/23 03:09:00;;;;;;;36.30;19.13;;;1.20;99.90;;;;;;5080217;28;20190;-73
2021/12/23 03:11:28;;;;;;;35.13;19.53;;;1.20;99.90;;;;;;5074234;28;20209;-74
2021/12/23 03:13:55;;;;;;;33.20;18.47;;;1.20;99.90;;;;;;5073806;28;20187;-74
2021/12/23 03:16:27;;;;;;;32.50;18.90;;;1.20;99.90;;;;;;5069277;28;20648;-73
2021/12/23 03:18:53;;;;;;;36.77;20.30;;;1.20;99.90;;;;;;5068159;28;20208;-74
2021/12/23 03:21:19;;;;;;;30.95;17.85;;;1.20;99.90;;;;;;5068668;28;20214;-75
2021/12/23 03:23:45;;;;;;;38.75;19.80;;;1.20;99.90;;;;;;5070790;28;20190;-76
2021/12/23 03:26:11;;;;;;;34.45;19.90;;;1.20;99.90;;;;;;5050200;28;20670;-74
2021/12/23 03:28:36;;;;;;;33.63;18.70;;;1.20;99.90;;;;;;5068418;28;20229;-74
2021/12/23 03:31:03;;;;;;;39.40;20.35;;;1.20;99.90;;;;;;5070464;28;20186;-71
2021/12/23 03:33:29;;;;;;;41.28;20.30;;;1.10;99.90;;;;;;5078155;28;20214;-73
2021/12/23 03:35:55;;;;;;;35.45;18.52;;;1.20;99.90;;;;;;5074684;28;20197;-74
2021/12/23 03:38:22;;;;;;;38.37;20.53;;;1.20;99.90;;;;;;5070580;28;20186;-74
2021/12/23 03:40:49;;;;;;;38.85;21.40;;;1.20;99.90;;;;;;5053949;28;20286;-72
2021/12/23 03:43:16;;;;;;;39.67;22.43;;;1.20;99.90;;;;;;5051616;28;20249;-72
2021/12/23 03:45:44;;;;;;;44.42;23.17;;;1.20;99.90;;;;;;5068240;28;20201;-74
2021/12/23 03:48:11;;;;;;;48.17;24.35;;;1.20;99.90;;;;;;5069265;28;20563;-75
2021/12/23 03:50:37;;;;;;;49.70;25.60;;;1.20;99.90;;;;;;5068317;28;20189;-74
2021/12/23 03:53:03;;;;;;;47.05;24.50;;;1.20;99.90;;;;;;5051308;28;20190;-74
2021/12/23 03:55:29;;;;;;;45.17;24.10;;;1.20;99.90;;;;;;5074120;28;20182;-73
2021/12/23 03:57:54;;;;;;;50.40;25.90;;;1.20;99.90;;;;;;5070597;28;20187;-73
2021/12/23 04:00:22;;;;;;;47.55;26.33;;;1.20;99.90;;;;;;5078055;28;20226;-73
2021/12/23 04:02:49;;;;;;;57.60;27.70;;;1.20;99.90;;;;;;5065944;28;20228;-72
2021/12/23 04:05:15;;;;;;;54.95;28.65;;;1.20;99.90;;;;;;5050072;28;20183;-73
2021/12/23 04:07:41;;;;;;;52.40;29.13;;;1.20;99.90;;;;;;5052768;28;20182;-74
2021/12/23 04:10:09;;;;;;;57.35;30.05;;;1.20;99.90;;;;;;5070293;28;20186;-74
2021/12/23 04:12:35;;;;;;;63.83;32.63;;;1.20;99.90;;;;;;5050897;28;20187;-73
2021/12/23 04:15:00;;;;;;;60.88;31.77;;;1.20;99.90;;;;;;5069687;28;20204;-73
2021/12/23 04:17:26;;;;;;;63.50;32.90;;;1.20;99.90;;;;;;5050411;28;20186;-74
2021/12/23 04:19:52;;;;;;;67.60;32.77;;;1.20;99.90;;;;;;5069614;28;20221;-71
2021/12/23 04:22:18;;;;;;;63.47;33.60;;;1.20;99.90;;;;;;5051368;28;20206;-73
2021/12/23 04:24:43;;;;;;;69.88;35.85;;;1.10;99.90;;;;;;5071595;28;20226;-73
2021/12/23 04:27:09;;;;;;;75.00;36.00;;;1.10;99.90;;;;;;5067262;28;20199;-72
2021/12/23 04:29:35;;;;;;;68.82;35.45;;;1.10;99.90;;;;;;5069168;28;20247;-72
2021/12/23 04:32:01;;;;;;;76.00;35.87;;;1.10;99.90;;;;;;5067717;28;20187;-71
2021/12/23 04:34:27;;;;;;;71.73;35.63;;;1.10;99.90;;;;;;5069090;28;20224;-73
2021/12/23 04:36:53;;;;;;;82.90;37.83;;;1.10;99.90;;;;;;5067560;28;20178;-72
2021/12/23 04:39:19;;;;;;;80.70;36.72;;;1.10;99.90;;;;;;5069072;28;20189;-73
2021/12/23 04:41:45;;;;;;;82.63;38.83;;;1.10;99.90;;;;;;5066753;28;20182;-74
2021/12/23 04:44:11;;;;;;;79.75;37.67;;;1.10;99.90;;;;;;5057827;28;20226;-72
2021/12/23 04:46:36;;;;;;;87.55;41.03;;;1.20;99.90;;;;;;5048969;28;20197;-73
2021/12/23 04:49:02;;;;;;;91.70;42.60;;;1.20;99.90;;;;;;5068387;28;20317;-73
2021/12/23 04:51:28;;;;;;;88.25;42.55;;;1.20;99.90;;;;;;5050134;28;20178;-73
2021/12/23 04:53:53;;;;;;;101.97;46.67;;;1.20;99.90;;;;;;5048125;28;20187;-74
2021/12/23 04:56:19;;;;;;;106.28;46.08;;;1.20;99.90;;;;;;5055399;28;20194;-73
2021/12/23 04:58:45;;;;;;;101.10;47.00;;;1.20;99.90;;;;;;5075899;28;20182;-74
2021/12/23 05:01:28;;;;;;;102.40;47.03;;;1.20;99.90;;;;;;5066303;28;20256;-73
2021/12/23 05:03:54;;;;;;;107.77;46.47;;;1.20;99.90;;;;;;5068172;28;20269;-74
2021/12/23 05:06:20;;;;;;;104.68;47.85;;;1.20;99.90;;;;;;5069495;28;20179;-73
2021/12/23 05:08:46;;;;;;;100.07;44.28;;;1.20;99.90;;;;;;5066778;28;20178;-73
2021/12/23 05:11:11;;;;;;;99.40;45.47;;;1.20;99.90;;;;;;5066977;28;20182;-73
2021/12/23 05:13:37;;;;;;;103.03;46.85;;;1.20;99.90;;;;;;5050388;28;20182;-74
2021/12/23 05:16:03;;;;;;;112.50;48.27;;;1.30;99.90;;;;;;5066170;28;20240;-74
2021/12/23 05:18:29;;;;;;;111.70;46.97;;;1.30;99.90;;;;;;5049368;28;20651;-74
2021/12/23 05:20:55;;;;;;;107.18;46.22;;;1.30;99.90;;;;;;5049490;28;20237;-75
2021/12/23 05:23:20;;;;;;;109.45;48.13;;;1.30;99.90;;;;;;5049630;28;20647;-74
2021/12/23 05:25:46;;;;;;;100.65;45.85;;;1.20;99.90;;;;;;5066730;28;20205;-74
2021/12/23 05:28:13;;;;;;;102.40;44.88;;;1.20;99.90;;;;;;5068587;28;20175;-75
2021/12/23 05:30:39;;;;;;;108.97;48.10;;;1.20;99.90;;;;;;5065788;28;23065;-74
2021/12/23 05:33:05;;;;;;;105.27;47.47;;;1.20;99.90;;;;;;5067169;28;20617;-75
2021/12/23 05:35:32;;;;;;;107.40;46.50;;;1.30;99.90;;;;;;5065653;28;20214;-74
2021/12/23 05:37:58;;;;;;;104.45;43.78;;;1.30;99.90;;;;;;5066887;28;20189;-74
2021/12/23 05:40:26;;;;;;;105.30;47.10;;;1.30;99.90;;;;;;5068379;28;20210;-74
2021/12/23 05:42:52;;;;;;;105.35;46.47;;;1.30;99.90;;;;;;5087135;28;20224;-74
2021/12/23 05:45:19;;;;;;;104.57;46.20;;;1.30;99.90;;;;;;5067236;28;20206;-77
2021/12/23 05:47:45;;;;;;;107.80;47.77;;;1.30;99.90;;;;;;5073856;28;20186;-76
2021/12/23 05:50:13;;;;;;;103.07;44.53;;;1.30;99.90;;;;;;5066624;28;20182;-77
2021/12/23 05:52:38;;;;;;;98.35;42.88;;;1.30;99.90;;;;;;5065691;28;20191;-75
2021/12/23 05:55:06;;;;;;;104.07;45.33;;;1.30;99.90;;;;;;5072190;28;20193;-75
2021/12/23 05:57:31;;;;;;;102.87;45.27;;;1.30;99.90;;;;;;5076270;28;20184;-77
2021/12/23 05:59:57;;;;;;;101.70;43.85;;;1.30;99.90;;;;;;5071650;28;20655;-75
2021/12/23 06:02:24;;;;;;;108.50;46.13;;;1.30;99.90;;;;;;5073573;28;20201;-76
2021/12/23 06:04:49;;;;;;;109.03;44.30;;;1.30;99.90;;;;;;5069836;28;20186;-76
2021/12/23 06:07:15;;;;;;;102.47;44.77;;;1.30;99.90;;;;;;5073258;28;20186;-75
2021/12/23 06:09:41;;;;;;;105.03;46.35;;;1.30;99.90;;;;;;5065867;28;20893;-75
2021/12/23 06:12:07;;;;;;;103.72;45.53;;;1.30;99.90;;;;;;5074131;28;20182;-75
2021/12/23 06:14:33;;;;;;;101.13;44.85;;;1.30;99.90;;;;;;5085137;28;20566;-74
2021/12/23 06:17:00;;;;;;;103.22;44.92;;;1.30;99.90;;;;;;5076395;28;20189;-73
2021/12/23 06:19:26;;;;;;;102.47;45.53;;;1.30;99.90;;;;;;5083669;28;20201;-77
2021/12/23 06:21:51;;;;;;;108.72;47.00;;;1.30;99.90;;;;;;5076708;28;20181;-76
2021/12/23 06:24:17;;;;;;;103.53;43.00;;;1.30;99.90;;;;;;5071624;28;20191;-76
2021/12/23 06:26:43;;;;;;;101.37;44.83;;;1.40;99.90;;;;;;5083252;28;20186;-75
2021/12/23 06:29:08;;;;;;;100.00;43.93;;;1.40;99.90;;;;;;5070003;28;20186;-75
2021/12/23 06:31:34;;;;;;;101.47;43.47;;;1.40;99.90;;;;;;5071437;28;20674;-75
2021/12/23 06:33:59;;;;;;;109.75;44.50;;;1.40;99.90;;;;;;5070681;28;20182;-76
2021/12/23 06:36:25;;;;;;;100.70;42.95;;;1.40;99.90;;;;;;5071323;28;20236;-74
2021/12/23 06:38:51;;;;;;;103.80;43.78;;;1.40;99.90;;;;;;5070523;28;20718;-75
2021/12/23 06:41:18;;;;;;;110.45;43.55;;;1.40;99.90;;;;;;5070756;28;20217;-77
2021/12/23 06:43:44;;;;;;;104.57;44.60;;;1.40;99.90;;;;;;5068237;28;20241;-75
2021/12/23 06:46:10;;;;;;;105.00;43.72;;;1.40;99.90;;;;;;5068722;28;20191;-76
2021/12/23 06:48:36;;;;;;;106.22;44.63;;;1.40;99.90;;;;;;5052804;28;20206;-78
2021/12/23 06:51:03;;;;;;;104.83;43.20;;;1.40;99.90;;;;;;5070832;28;20727;-74
2021/12/23 06:53:29;;;;;;;110.22;45.53;;;1.40;99.90;;;;;;5050688;28;20197;-74
2021/12/23 06:55:55;;;;;;;100.10;41.83;;;1.40;99.90;;;;;;5066957;28;20191;-75
2021/12/23 06:58:25;;;;;;;107.53;43.57;;;1.40;99.90;;;;;;5048936;28;20186;-74
2021/12/23 07:00:52;;;;;;;111.95;43.90;;;1.40;99.90;;;;;;5068099;28;20260;-76
2021/12/23 07:03:18;;;;;;;97.85;40.90;;;1.50;99.90;;;;;;5052115;28;20678;-75
2021/12/23 07:05:43;;;;;;;103.97;42.93;;;1.40;99.90;;;;;;5070583;28;20260;-76
2021/12/23 07:08:25;;;;;;;100.95;43.55;;;1.40;99.90;;;;;;5066730;28;20187;-75
2021/12/23 07:10:51;;;;;;;98.22;40.80;;;1.40;99.90;;;;;;5049825;28;20202;-73
2021/12/23 07:13:17;;;;;;;101.20;42.77;;;1.40;99.90;;;;;;5069716;28;20674;-74
2021/12/23 07:15:42;;;;;;;127.32;57.92;;;1.40;99.90;;;;;;5067626;28;20490;-75
2021/12/23 07:18:08;;;;;;;130.90;59.07;;;1.60;99.90;;;;;;5066387;28;20403;-75
2021/12/23 07:20:34;;;;;;;133.02;59.38;;;2.00;99.90;;;;;;5067914;28;20895;-75
2021/12/23 07:23:00;;;;;;;133.35;58.30;;;2.10;99.90;;;;;;5065985;28;20410;-78
2021/12/23 07:25:26;;;;;;;130.10;58.60;;;2.30;99.90;;;;;;5067638;28;20403;-74
2021/12/23 07:27:52;;;;;;;117.65;48.63;;;2.40;99.90;;;;;;5068798;28;20182;-76
2021/12/23 07:30:19;;;;;;;113.10;44.95;;;2.10;99.90;;;;;;5068518;28;20236;-75
2021/12/23 07:32:46;;;;;;;106.57;43.35;;;1.80;99.90;;;;;;5068068;28;20195;-75
2021/12/23 07:35:12;;;;;;;112.55;43.17;;;1.70;99.90;;;;;;5066098;28;20198;-73
2021/12/23 07:37:38;;;;;;;114.40;44.08;;;1.60;99.90;;;;;;5066569;28;20199;-74
2021/12/23 07:40:05;;;;;;;113.13;43.90;;;1.60;99.90;;;;;;5066046;28;20211;-74
2021/12/23 07:42:33;;;;;;;103.53;41.70;;;1.50;99.90;;;;;;5065938;28;20218;-75
2021/12/23 07:45:01;;;;;;;111.30;42.97;;;1.50;99.90;;;;;;5048526;28;20274;-75
2021/12/23 07:47:29;;;;;;;114.63;42.75;;;1.50;99.90;;;;;;5057418;28;20554;-75
2021/12/23 07:49:55;;;;;;;114.90;43.20;;;1.40;99.90;;;;;;5065400;28;20678;-76
2021/12/23 07:52:22;;;;;;;105.05;42.90;;;1.40;99.90;;;;;;5063050;28;20278;-77
2021/12/23 07:54:47;;;;;;;116.37;41.50;;;1.40;99.90;;;;;;5058188;28;20277;-76
2021/12/23 07:57:13;;;;;;;114.18;42.03;;;1.40;99.90;;;;;;5044069;28;20714;-76
2021/12/23 07:59:39;;;;;;;140.52;56.90;;;1.40;99.90;;;;;;5066593;28;20490;-76
2021/12/23 08:02:04;;;;;;;138.53;58.33;;;1.70;99.90;;;;;;5046807;28;21085;-77
2021/12/23 08:04:33;;;;;;;135.65;54.78;;;2.00;99.90;;;;;;5064776;28;20935;-77
2021/12/23 08:07:02;;;;;;;135.60;56.33;;;2.20;99.90;;;;;;5042685;28;20448;-75
2021/12/23 08:09:28;;;;;;;139.82;56.60;;;2.30;99.90;;;;;;5046052;28;20415;-75
2021/12/23 08:11:53;;;;;;;138.85;55.92;;;2.40;99.90;;;;;;5066534;28;20399;-76
2021/12/23 08:14:19;;;;;;;132.50;55.90;;;2.50;99.90;;;;;;5063033;28;21237;-77
2021/12/23 08:16:45;;;;;;;131.50;54.38;;;2.50;99.90;;;;;;5046657;28;20403;-76
2021/12/23 08:19:11;;;;;;;132.25;54.85;;;2.50;99.90;;;;;;5066671;28;22054;-77
2021/12/23 08:21:37;;;;;;;129.98;55.58;;;2.60;99.90;;;;;;5048917;28;20903;-76
2021/12/23 08:24:03;;;;;;;134.23;56.13;;;2.60;99.90;;;;;;5065370;28;20494;-76
2021/12/23 08:26:29;;;;;;;124.85;53.15;;;2.60;99.90;;;;;;5066634;28;20392;-76
2021/12/23 08:28:56;;;;;;;123.70;53.93;;;2.70;99.90;;;;;;5064236;28;20927;-77
2021/12/23 08:31:23;;;;;;;129.95;55.40;;;2.70;99.90;;;;;;5065151;28;20503;-74
2021/12/23 08:33:49;;;;;;;121.25;54.42;;;2.70;99.90;;;;;;5065803;28;20822;-74
2021/12/23 08:36:15;;;;;;;127.40;54.67;;;2.70;99.90;;;;;;5064463;28;20463;-75
2021/12/23 08:38:42;;;;;;;123.90;52.72;;;2.70;99.90;;;;;;5047160;28;20462;-76
2021/12/23 08:41:09;;;;;;;125.05;54.47;;;2.70;99.90;;;;;;5047579;28;20896;-75
2021/12/23 08:43:35;;;;;;;124.73;54.70;;;2.70;99.90;;;;;;5054712;28;20828;-74
2021/12/23 08:46:03;;;;;;;123.53;53.78;;;2.70;99.90;;;;;;5076229;28;20706;-77
2021/12/23 08:48:28;;;;;;;118.97;53.40;;;2.70;99.90;;;;;;5066342;28;20395;-73
2021/12/23 08:50:54;;;;;;;127.33;55.73;;;2.70;99.90;;;;;;5062168;28;20423;-75
2021/12/23 08:53:20;;;;;;;123.22;53.83;;;2.70;99.90;;;;;;5065701;28;20403;-74
2021/12/23 08:55:46;;;;;;;117.25;51.05;;;2.70;99.90;;;;;;5064185;28;20447;-74
2021/12/23 08:58:12;;;;;;;119.72;53.72;;;2.70;99.90;;;;;;5078261;28;21081;-74
2021/12/23 09:00:39;;;;;;;115.10;52.17;;;2.70;99.90;;;;;;5067289;28;20505;-74
2021/12/23 09:03:06;;;;;;;115.70;51.27;;;2.80;99.90;;;;;;5063611;28;20892;-75
2021/12/23 09:05:34;;;;;;;114.35;51.08;;;2.70;99.90;;;;;;5063637;28;20917;-74
2021/12/23 09:08:00;;;;;;;115.93;50.97;;;2.70;99.90;;;;;;5065299;28;20481;-74
2021/12/23 09:10:26;;;;;;;110.38;51.08;;;2.70;99.90;;;;;;5064800;28;20415;-74
2021/12/23 09:12:52;;;;;;;110.43;50.17;;;2.70;99.90;;;;;;5064227;28;20494;-75
2021/12/23 09:15:19;;;;;;;108.57;50.80;;;2.80;99.90;;;;;;5064792;28;20410;-73
2021/12/23 09:17:45;;;;;;;110.47;50.70;;;2.80;99.90;;;;;;5062207;28;20458;-74
2021/12/23 09:20:15;;;;;;;110.15;50.70;;;2.80;99.90;;;;;;5066162;28;20451;-74
2021/12/23 09:22:41;;;;;;;114.28;51.45;;;2.80;99.90;;;;;;5063949;28;20427;-74
2021/12/23 09:25:13;;;;;;;109.63;50.97;;;2.80;99.90;;;;;;5067997;28;20412;-74
2021/12/23 09:33:02;;;;;;;108.22;49.97;;;2.90;99.90;;;;;;5065960;28;20416;-75
2021/12/23 09:35:30;;;;;;;106.72;50.92;;;2.90;99.90;;;;;;5064577;28;20509;-74
2021/12/23 09:37:56;;;;;;;114.38;51.38;;;2.90;99.90;;;;;;5064390;28;20411;-74
2021/12/23 09:40:23;;;;;;;109.93;51.17;;;2.90;99.90;;;;;;5063872;28;20415;-74
2021/12/23 09:42:50;;;;;;;103.45;50.22;;;3.00;99.90;;;;;;5018900;28;1281358;-75
2021/12/23 09:45:18;;;;;;;109.30;49.60;;;3.00;99.90;;;;;;5067609;28;20411;-75
2021/12/23 09:47:47;;;;;;;100.97;48.47;;;3.00;99.90;;;;;;5063969;28;21051;-75
2021/12/23 09:50:15;;;;;;;107.38;50.22;;;3.00;99.90;;;;;;5065180;28;20434;-75
2021/12/23 09:52:44;;;;;;;106.10;49.38;;;3.00;99.90;;;;;;5064100;28;20508;-74
2021/12/23 09:55:12;;;;;;;101.97;48.10;;;3.00;99.90;;;;;;5066890;28;20423;-74
2021/12/23 09:57:40;;;;;;;105.53;48.22;;;3.10;99.90;;;;;;5065148;28;20930;-75
2021/12/23 10:00:11;;;;;;;103.15;48.70;;;3.10;99.90;;;;;;5065265;28;20415;-74
2021/12/23 10:02:41;;;;;;;102.10;47.23;;;3.10;99.90;;;;;;5046794;28;20407;-73
2021/12/23 10:05:14;;;;;;;101.53;49.50;;;3.10;99.90;;;;;;5076255;28;20422;-76
2021/12/23 10:07:43;;;;;;;100.40;47.90;;;3.20;99.90;;;;;;5072210;28;20414;-75
2021/12/23 10:10:33;;;;;;;103.03;47.40;;;3.30;99.90;;;;;;5066227;28;20509;-75
2021/12/23 10:13:18;;;;;;;97.28;46.80;;;3.30;99.90;;;;;;5066167;28;20411;-75
2021/12/23 10:33:11;;;;;;;100.50;45.55;;;2.50;99.90;;;;;;5064174;28;20484;-75
2021/12/23 10:38:30;;;;;;;96.85;45.72;;;3.10;99.90;;;;;;5064287;28;20426;-73
2021/12/23 10:41:03;;;;;;;94.95;45.65;;;3.20;99.90;;;;;;5067970;28;20426;-74
2021/12/23 10:43:40;;;;;;;91.63;44.37;;;3.30;99.90;;;;;;5066687;28;20504;-73
2021/12/23 10:46:20;;;;;;;91.23;45.80;;;3.40;99.90;;;;;;5053969;28;20427;-74
2021/12/23 10:52:03;;;;;;;92.82;45.30;;;3.50;99.90;;;;;;5048665;28;20847;-75
2021/12/23 11:00:22;;;;;;;87.63;38.25;;;3.60;99.90;;;;;;5068362;28;20289;-74
2021/12/23 11:03:10;;;;;;;86.78;37.92;;;3.20;99.90;;;;;;5069029;28;20550;-73
2021/12/23 11:05:43;;;;;;;86.18;34.75;;;2.90;99.90;;;;;;5068433;28;20232;-75
2021/12/23 11:08:21;;;;;;;82.10;35.85;;;2.70;99.90;;;;;;5068193;28;20647;-75
2021/12/23 11:27:29;;;;;;;84.68;35.03;;;2.70;99.90;;;;;;5069019;28;20201;-75
2021/12/23 11:39:07;;;;;;;81.32;34.60;;;2.80;99.90;;;;;;5069997;28;20546;-74
2021/12/23 11:43:48;;;;;;;80.68;34.83;;;2.90;99.90;;;;;;5067845;28;20980;-73
2021/12/23 11:46:16;;;;;;;86.07;35.55;;;3.00;99.90;;;;;;5062915;28;20225;-74
2021/12/23 11:48:45;;;;;;;85.75;36.22;;;3.00;99.90;;;;;;5067319;28;20191;-75
2021/12/23 11:51:19;;;;;;;78.50;33.95;;;3.10;99.90;;;;;;5063077;28;20665;-76
2021/12/23 11:53:48;;;;;;;70.60;32.72;;;3.20;99.90;;;;;;5066541;28;20255;-75
2021/12/23 11:56:16;;;;;;;78.05;35.78;;;3.30;99.90;;;;;;5042040;28;20268;-74
2021/12/23 11:58:45;;;;;;;76.43;33.50;;;3.40;99.90;;;;;;5066233;28;20954;-76
2021/12/23 12:01:20;;;;;;;82.50;35.90;;;3.50;99.90;;;;;;5060891;28;20206;-76
2021/12/23 12:04:08;;;;;;;82.70;40.67;;;3.50;99.90;;;;;;5063101;28;20984;-75
2021/12/23 12:06:45;;;;;;;78.47;41.05;;;4.00;99.90;;;;;;5053746;28;20417;-75
2021/12/23 12:09:13;;;;;;;77.78;42.15;;;4.50;99.90;;;;;;5061034;28;20458;-76
2021/12/23 12:11:41;;;;;;;71.22;39.75;;;4.70;99.90;;;;;;5041496;28;20496;-76
2021/12/23 12:14:40;;;;;;;83.97;39.33;;;4.90;99.90;;;;;;5065812;28;20265;-75
2021/12/23 12:17:26;;;;;;;72.80;34.38;;;4.60;99.90;;;;;;5064228;28;20277;-73
2021/12/23 12:19:58;;;;;;;73.35;34.05;;;4.30;99.90;;;;;;5064485;28;20199;-75
2021/12/23 12:22:45;;;;;;;73.47;33.28;;;4.20;99.90;;;;;;5060341;28;20188;-77
2021/12/23 12:25:32;;;;;;;74.38;32.58;;;4.00;99.90;;;;;;5045013;28;20190;-74
2021/12/23 12:27:59;;;;;;;72.95;32.30;;;4.00;99.90;;;;;;5063802;28;20229;-75
2021/12/23 12:30:55;;;;;;;73.05;32.20;;;3.90;99.90;;;;;;5048299;28;20208;-75
2021/12/23 12:33:24;;;;;;;79.32;33.03;;;3.80;99.90;;;;;;5064760;28;20187;-75
2021/12/23 12:36:05;;;;;;;68.47;32.45;;;3.80;99.90;;;;;;5045194;28;20266;-75
2021/12/23 12:38:35;;;;;;;71.10;32.55;;;3.70;99.90;;;;;;5044358;28;20201;-75
2021/12/23 12:41:23;;;;;;;68.88;32.38;;;3.70;99.90;;;;;;5044235;28;20211;-74
2021/12/23 12:44:02;;;;;;;64.07;30.00;;;3.70;99.90;;;;;;5047398;28;20304;-73
2021/12/23 12:46:34;;;;;;;65.95;30.35;;;3.70;99.90;;;;;;5061793;28;20198;-74
2021/12/23 12:49:13;;;;;;;71.47;32.38;;;3.70;99.90;;;;;;5066351;28;20963;-73
2021/12/23 12:51:42;;;;;;;69.70;32.70;;;3.70;99.90;;;;;;5060803;28;20206;-74
2021/12/23 12:54:13;;;;;;;75.43;32.83;;;3.70;99.90;;;;;;5066720;28;20567;-74
2021/12/23 12:56:55;;;;;;;73.25;32.25;;;3.80;99.90;;;;;;5063892;28;20190;-75
2021/12/23 12:59:25;;;;;;;64.53;30.05;;;3.80;99.90;;;;;;5066421;28;20216;-75
2021/12/23 13:01:53;;;;;;;68.45;31.17;;;3.80;99.90;;;;;;5055420;28;20242;-73
2021/12/23 13:04:34;;;;;;;70.85;32.60;;;3.80;99.90;;;;;;5061412;28;20186;-76
2021/12/23 13:07:29;;;;;;;69.90;31.13;;;3.90;99.90;;;;;;5045864;28;20202;-76
2021/12/23 13:10:19;;;;;;;74.22;31.05;;;3.90;99.90;;;;;;5064463;28;20195;-75
2021/12/23 13:13:11;;;;;;;67.68;31.70;;;3.90;99.90;;;;;;5043658;28;20190;-74
2021/12/23 13:15:57;;;;;;;60.47;30.80;;;3.90;99.90;;;;;;5062587;28;20686;-73
2021/12/23 13:18:24;;;;;;;64.60;31.67;;;3.90;99.90;;;;;;5044739;28;20312;-73
2021/12/23 13:20:54;;;;;;;67.43;31.48;;;4.00;99.90;;;;;;5055918;28;20214;-75
2021/12/23 13:23:29;;;;;;;63.63;32.38;;;4.00;99.90;;;;;;5059663;28;20274;-76
2021/12/23 13:26:05;;;;;;;66.38;32.45;;;4.00;99.90;;;;;;5044752;28;20189;-75
2021/12/23 13:28:39;;;;;;;69.85;31.38;;;4.10;99.90;;;;;;5045073;28;20231;-75
2021/12/23 13:31:09;;;;;;;71.15;34.05;;;4.10;99.90;;;;;;5062575;28;20221;-74
2021/12/23 13:33:44;;;;;;;64.65;32.78;;;4.10;99.90;;;;;;5064688;28;20215;-75
2021/12/23 13:36:37;;;;;;;74.60;32.83;;;4.20;99.90;;;;;;5063148;28;20260;-73
2021/12/23 13:39:27;;;;;;;71.13;31.58;;;4.20;99.90;;;;;;5056188;28;20784;-73
2021/12/23 13:41:54;;;;;;;91.85;43.10;;;4.20;99.90;;;;;;5062593;28;20210;-73
2021/12/23 13:44:38;;;;;;;73.50;33.63;;;4.30;99.90;;;;;;5067374;28;20297;-72
2021/12/23 13:47:08;;;;;;;67.70;32.70;;;4.30;99.90;;;;;;5057293;28;20213;-74
2021/12/23 13:49:33;;;;;;;72.28;34.30;;;4.30;99.90;;;;;;5067270;28;20190;-73